Ingolstadt Manching Airport ETSI

Flugplatz Daten

Name: Ingolstadt Manching Airport

Ident: ETSI

Lat: 48,71569824

Long: 11,5340004

Platzhöhe: 1202 ft

IataCode: IGS

City: Manching

Metar

2021/10/25 23:20
ETSI 252320Z AUTO VRB01KT 0100 // ////// 02/02 Q1022 ///

Taf

2013/08/20 02:48
TAF ETSI 200233Z 2002/2017 27005KT 9999 NSW FEW050 BKN230
BECMG 2008/2011 33005KT 9999 NSW FEW030 BKN050
Gewünschte Webcam nicht vorhanden? Dann fügen Sie eine hinzu. Sie wird dann so schnell wie möglich freigeschaltet
Url: Title: